createdAt,value
2022-10-18T00:00:13.115Z,1006.6
2022-10-18T00:01:56.793Z,1005.9
2022-10-18T00:03:40.477Z,1003.6
2022-10-18T00:05:24.185Z,1000.8
2022-10-18T00:07:07.943Z,999.9
2022-10-18T00:08:51.635Z,998
2022-10-18T00:10:35.305Z,999.8
2022-10-18T00:12:18.988Z,997.4
2022-10-18T00:14:02.694Z,995.1
2022-10-18T00:15:46.392Z,993
2022-10-18T00:17:30.090Z,986.6
2022-10-18T00:19:13.836Z,981.2
2022-10-18T00:20:57.529Z,979
2022-10-18T00:22:41.196Z,974.9
2022-10-18T00:24:24.883Z,975.8
2022-10-18T00:26:08.581Z,973.8
2022-10-18T00:27:52.363Z,974.2
2022-10-18T00:29:36.030Z,971.7
2022-10-18T00:31:19.719Z,971.6
2022-10-18T00:33:03.400Z,967.2
2022-10-18T00:34:47.094Z,965.5
2022-10-18T00:36:30.803Z,965.7
2022-10-18T00:38:14.493Z,963.5
2022-10-18T00:39:58.229Z,956.6
2022-10-18T00:41:41.919Z,949
2022-10-18T00:43:25.618Z,946.1
2022-10-18T00:45:09.284Z,944.6
2022-10-18T00:46:52.995Z,943.9
2022-10-18T00:48:36.689Z,940
2022-10-18T00:50:20.452Z,932.6
2022-10-18T00:52:04.124Z,927.3
2022-10-18T00:53:47.809Z,926.2
2022-10-18T00:55:31.495Z,923.5
2022-10-18T00:57:15.196Z,924.5
2022-10-18T00:58:58.886Z,925.3
2022-10-18T01:00:42.648Z,924.3
2022-10-18T01:02:26.328Z,921.2
2022-10-18T01:04:10.009Z,920.8
2022-10-18T01:05:53.694Z,922.7
2022-10-18T01:07:37.380Z,924.8
2022-10-18T01:09:21.085Z,923.9
2022-10-18T01:11:04.855Z,923.8
2022-10-18T01:12:48.531Z,925.4
2022-10-18T01:14:32.216Z,925.9
2022-10-18T01:16:15.900Z,922.6
2022-10-18T01:17:59.612Z,918.4
2022-10-18T01:19:43.295Z,914.9
2022-10-18T01:21:27.063Z,909.3
2022-10-18T01:23:10.737Z,907
2022-10-18T01:24:54.435Z,906.5
2022-10-18T01:26:38.099Z,907.3
2022-10-18T01:28:21.812Z,905.4
2022-10-18T01:30:05.514Z,904.8
2022-10-18T01:31:49.269Z,904.3
2022-10-18T01:33:32.945Z,901.3
2022-10-18T01:35:16.626Z,894.9
2022-10-18T01:37:00.325Z,890.6
2022-10-18T01:38:44.030Z,888.8
2022-10-18T01:40:27.783Z,886
2022-10-18T01:42:11.469Z,883.8
2022-10-18T01:43:55.157Z,879.4
2022-10-18T01:45:38.830Z,880.2
2022-10-18T01:47:22.554Z,880.4
2022-10-18T01:49:06.230Z,884.5
2022-10-18T01:50:49.995Z,881.8
2022-10-18T01:52:33.675Z,879.4
2022-10-18T01:54:17.357Z,873.9
2022-10-18T01:56:01.042Z,869.8
2022-10-18T01:57:44.739Z,868.5
2022-10-18T01:59:28.448Z,868.5
2022-10-18T02:01:12.196Z,864
2022-10-18T02:02:55.877Z,859.5
2022-10-18T02:04:39.555Z,859.2
2022-10-18T02:06:23.256Z,857.8
2022-10-18T02:08:06.947Z,852
2022-10-18T02:09:50.648Z,849.8
2022-10-18T02:11:34.401Z,848.6
2022-10-18T02:13:18.080Z,842.7
2022-10-18T02:15:01.777Z,841.6
2022-10-18T02:16:45.464Z,838
2022-10-18T02:18:29.157Z,835
2022-10-18T02:20:12.867Z,835.7
2022-10-18T02:21:56.607Z,835.2
2022-10-18T02:23:40.288Z,835.4
2022-10-18T02:25:23.980Z,835.6
2022-10-18T02:27:07.681Z,833.9
2022-10-18T02:28:51.389Z,830.7
2022-10-18T02:30:35.129Z,830.6
2022-10-18T02:32:18.824Z,827.5
2022-10-18T02:34:02.509Z,827
2022-10-18T02:35:46.196Z,825.5
2022-10-18T02:37:29.897Z,827.3
2022-10-18T02:39:13.585Z,828.6
2022-10-18T02:40:57.335Z,830.3
2022-10-18T02:42:41.023Z,826.8
2022-10-18T02:44:24.714Z,826.3
2022-10-18T02:46:08.407Z,823.1
2022-10-18T02:47:52.134Z,817.9
2022-10-18T02:49:35.884Z,815.5
2022-10-18T02:51:19.545Z,813.8
2022-10-18T02:53:03.221Z,815.9
2022-10-18T02:54:46.905Z,817.2
2022-10-18T02:56:30.605Z,818.3
2022-10-18T02:58:14.309Z,817.6
2022-10-18T02:59:57.994Z,819.4
2022-10-18T03:01:41.741Z,817.2
2022-10-18T03:03:25.427Z,814.7
2022-10-18T03:05:09.129Z,816.2
2022-10-18T03:06:52.807Z,814.3
2022-10-18T03:08:36.519Z,810.5
2022-10-18T03:10:20.267Z,812
2022-10-18T03:12:03.950Z,811.5
2022-10-18T03:13:47.628Z,808.2
2022-10-18T03:15:31.317Z,807.1
2022-10-18T03:17:15.016Z,805.4
2022-10-18T03:18:58.726Z,800.8
2022-10-18T03:20:42.472Z,796.7
2022-10-18T03:22:26.155Z,795
2022-10-18T03:24:09.843Z,800
2022-10-18T03:25:53.533Z,799.2
2022-10-18T03:27:37.230Z,795.9
2022-10-18T03:29:20.995Z,794.4
2022-10-18T03:31:04.682Z,793.9
2022-10-18T03:32:48.361Z,792.4
2022-10-18T03:34:32.048Z,786.6
2022-10-18T03:36:15.757Z,786.7
2022-10-18T03:37:59.447Z,787.8
2022-10-18T03:39:43.198Z,785.7
2022-10-18T03:41:26.885Z,784.2
2022-10-18T03:43:10.578Z,785.1
2022-10-18T03:44:54.258Z,780.3
2022-10-18T03:46:37.969Z,777.2
2022-10-18T03:48:21.659Z,776.1
2022-10-18T03:50:05.419Z,775.8
2022-10-18T03:51:49.113Z,775.5
2022-10-18T03:53:32.775Z,775.6
2022-10-18T03:55:16.487Z,774.5
2022-10-18T03:57:00.175Z,773.9
2022-10-18T03:58:43.861Z,774.2
2022-10-18T04:00:27.617Z,774.1
2022-10-18T04:02:11.303Z,774.1
2022-10-18T04:03:54.976Z,771.2
2022-10-18T04:05:38.677Z,768.7
2022-10-18T04:07:22.376Z,769.3
2022-10-18T04:09:06.151Z,768.1
2022-10-18T04:10:49.824Z,768.3
2022-10-18T04:12:33.500Z,767.7
2022-10-18T04:14:17.200Z,768.3
2022-10-18T04:16:00.907Z,767.2
2022-10-18T04:17:44.591Z,767.2
2022-10-18T04:19:28.377Z,764.8
2022-10-18T04:21:12.023Z,763.1
2022-10-18T04:22:55.730Z,764.2
2022-10-18T04:24:39.408Z,764.3
2022-10-18T04:26:23.109Z,762.6
2022-10-18T04:28:06.874Z,761.6
2022-10-18T04:29:50.555Z,760.2
2022-10-18T04:31:34.226Z,758.6
2022-10-18T04:33:17.917Z,759.4
2022-10-18T04:35:01.643Z,760.2
2022-10-18T04:36:45.391Z,760.8
2022-10-18T04:38:29.074Z,759.3
2022-10-18T04:40:12.756Z,758.6
2022-10-18T04:41:56.435Z,759.6
2022-10-18T04:43:40.150Z,759.7
2022-10-18T04:45:23.846Z,759
2022-10-18T04:47:07.596Z,761.3
2022-10-18T04:48:51.279Z,760.7
2022-10-18T04:50:34.955Z,757.8
2022-10-18T04:52:18.646Z,760
2022-10-18T04:54:02.379Z,759.8
2022-10-18T04:55:46.051Z,757.3
2022-10-18T04:57:29.800Z,756.5
2022-10-18T04:59:13.477Z,755
2022-10-18T05:00:57.161Z,753.3
2022-10-18T05:02:40.860Z,750.5
2022-10-18T05:04:24.578Z,750.6
2022-10-18T05:06:08.323Z,748.7
2022-10-18T05:07:52.005Z,748.2
2022-10-18T05:09:35.688Z,747.4
2022-10-18T05:11:19.393Z,745.4
2022-10-18T05:13:03.086Z,742.8
2022-10-18T05:14:46.784Z,742
2022-10-18T05:16:30.530Z,742.7
2022-10-18T05:18:14.215Z,742.6
2022-10-18T05:19:57.892Z,742.4
2022-10-18T05:21:41.580Z,743.7
2022-10-18T05:23:25.317Z,740.8
2022-10-18T05:25:09.054Z,737.2
2022-10-18T05:26:52.733Z,736.7
2022-10-18T05:28:36.423Z,738.6
2022-10-18T05:30:20.111Z,737.6
2022-10-18T05:32:03.802Z,738.2
2022-10-18T05:33:47.512Z,741.3
2022-10-18T05:35:31.261Z,741.6
2022-10-18T05:37:14.958Z,741.2
2022-10-18T05:38:58.631Z,741.5
2022-10-18T05:40:42.324Z,738.7
2022-10-18T05:42:26.008Z,739
2022-10-18T05:44:09.717Z,740.4
2022-10-18T05:45:53.462Z,741.6
2022-10-18T05:47:37.146Z,739.9
2022-10-18T05:49:20.821Z,740.7
2022-10-18T05:51:04.531Z,741
2022-10-18T05:52:48.232Z,739
2022-10-18T05:54:31.983Z,736.4
2022-10-18T05:56:15.669Z,735.9
2022-10-18T05:57:59.356Z,737
2022-10-18T05:59:43.052Z,733.5
2022-10-18T06:01:26.787Z,732.7
2022-10-18T06:03:10.443Z,731.8
2022-10-18T06:04:54.195Z,730.1
2022-10-18T06:06:37.872Z,730.5
2022-10-18T06:08:21.552Z,731.9
2022-10-18T06:10:05.235Z,729.4
2022-10-18T06:11:48.952Z,725.6
2022-10-18T06:13:32.722Z,723.6
2022-10-18T06:15:16.398Z,719.4
2022-10-18T06:17:00.078Z,719.3
2022-10-18T06:18:43.760Z,721
2022-10-18T06:20:27.475Z,722.1
2022-10-18T06:22:11.181Z,720.5
2022-10-18T06:23:54.844Z,721.1
2022-10-18T06:25:38.605Z,719.5
2022-10-18T06:27:22.397Z,718.5
2022-10-18T06:29:06.027Z,719.3
2022-10-18T06:30:49.652Z,718.5
2022-10-18T06:32:33.364Z,715.8
2022-10-18T06:34:17.057Z,714
2022-10-18T06:36:00.811Z,711.7
2022-10-18T06:37:44.488Z,712.7
2022-10-18T06:39:28.176Z,713.8
2022-10-18T06:41:11.863Z,713.9
2022-10-18T06:42:55.564Z,714
2022-10-18T06:44:39.266Z,713.5
2022-10-18T06:46:22.950Z,710.5
2022-10-18T06:48:06.751Z,711.1
2022-10-18T06:49:50.371Z,711.7
2022-10-18T06:51:34.052Z,709.8
2022-10-18T06:53:17.753Z,709.6
2022-10-18T06:55:01.462Z,708.5
2022-10-18T06:56:45.215Z,705.5
2022-10-18T06:58:28.898Z,707.3
2022-10-18T07:00:12.624Z,708
2022-10-18T07:01:56.267Z,705.2
2022-10-18T07:03:39.978Z,705.1
2022-10-18T07:05:23.685Z,703.6
2022-10-18T07:07:07.427Z,704
2022-10-18T07:08:51.109Z,703.6
2022-10-18T07:10:34.784Z,704.9
2022-10-18T07:12:18.470Z,707.6
2022-10-18T07:14:02.173Z,706.6
2022-10-18T07:15:45.868Z,704.2
2022-10-18T07:17:29.629Z,703.3
2022-10-18T07:19:13.308Z,703.3
2022-10-18T07:20:56.989Z,706.5
2022-10-18T07:22:40.684Z,707
2022-10-18T07:24:24.373Z,706.8
2022-10-18T07:26:08.079Z,705.1
2022-10-18T07:27:51.834Z,704.4
2022-10-18T07:29:35.515Z,710.6
2022-10-18T07:31:19.238Z,719.8
2022-10-18T07:33:02.879Z,726
2022-10-18T07:34:46.571Z,725.6
2022-10-18T07:36:30.287Z,727.9
2022-10-18T07:38:14.095Z,730.6
2022-10-18T07:39:57.724Z,732.8
2022-10-18T07:41:41.399Z,734.4
2022-10-18T07:43:25.100Z,737.1
2022-10-18T07:45:08.809Z,740.8
2022-10-18T07:46:52.481Z,747.2
2022-10-18T07:48:36.242Z,754.4
2022-10-18T07:50:19.924Z,760.1
2022-10-18T07:52:03.623Z,759.6
2022-10-18T07:53:47.290Z,758.5
2022-10-18T07:55:31.005Z,762.4
2022-10-18T07:57:14.710Z,766.9
2022-10-18T07:58:58.444Z,775.2
2022-10-18T08:00:42.125Z,781.4
2022-10-18T08:02:25.831Z,786.1
2022-10-18T08:04:09.536Z,788.1
2022-10-18T08:05:53.233Z,790.6
2022-10-18T08:07:36.971Z,793.2
2022-10-18T08:09:20.651Z,794.2
2022-10-18T08:11:04.345Z,795.8
2022-10-18T08:12:48.035Z,798.3
2022-10-18T08:14:31.751Z,801.5
2022-10-18T08:16:15.521Z,806.2
2022-10-18T08:17:59.172Z,807.2
2022-10-18T08:19:42.863Z,811.5
2022-10-18T08:21:26.571Z,816.2
2022-10-18T08:23:10.265Z,817.2
2022-10-18T08:24:54.017Z,819.8
2022-10-18T08:26:37.696Z,817.9
2022-10-18T08:28:21.379Z,813.7
2022-10-18T08:30:05.088Z,806.8
2022-10-18T08:31:48.855Z,797.4
2022-10-18T08:33:32.622Z,793.1
2022-10-18T08:35:16.314Z,782.9
2022-10-18T08:37:00.035Z,771.4
2022-10-18T08:38:43.709Z,755.1
2022-10-18T08:40:27.272Z,728.7
2022-10-18T08:42:11.113Z,699.5
2022-10-18T08:43:54.892Z,696.5
2022-10-18T08:45:38.576Z,691.9
2022-10-18T08:47:22.255Z,689.3
2022-10-18T08:49:05.928Z,687.7
2022-10-18T08:50:49.626Z,686
2022-10-18T08:52:33.198Z,684.6
2022-10-18T08:54:16.981Z,681.4
2022-10-18T08:56:00.777Z,681.7
2022-10-18T08:57:44.462Z,685.3
2022-10-18T08:59:28.133Z,698.5
2022-10-18T09:01:11.766Z,714.9
2022-10-18T09:02:55.410Z,721.5
2022-10-18T09:04:39.159Z,730
2022-10-18T09:06:22.837Z,736.5
2022-10-18T09:08:06.670Z,736.6
2022-10-18T09:09:50.328Z,739.6
2022-10-18T09:11:33.942Z,745.7
2022-10-18T09:13:17.609Z,748.7
2022-10-18T09:15:01.412Z,748.8
2022-10-18T09:16:45.046Z,751.3
2022-10-18T09:18:28.742Z,752.2
2022-10-18T09:20:12.429Z,752.7
2022-10-18T09:21:56.128Z,754.7
2022-10-18T09:23:39.957Z,755.8
2022-10-18T09:25:23.667Z,757.6
2022-10-18T09:27:07.390Z,761.5
2022-10-18T09:28:50.926Z,767.4
2022-10-18T09:30:34.666Z,768.5
2022-10-18T09:32:18.433Z,769.7
2022-10-18T09:34:02.035Z,776.4
2022-10-18T09:35:45.775Z,779.4
2022-10-18T09:37:29.458Z,782.5
2022-10-18T09:39:13.131Z,787.3
2022-10-18T09:40:56.843Z,789.3
2022-10-18T09:42:40.575Z,788
2022-10-18T09:44:24.271Z,786.3
2022-10-18T09:46:07.978Z,789.3
2022-10-18T09:47:51.656Z,793.5
2022-10-18T09:49:35.350Z,793.7
2022-10-18T09:51:19.052Z,803
2022-10-18T09:53:02.846Z,808.2
2022-10-18T09:54:46.551Z,808
2022-10-18T09:56:30.226Z,808.3
2022-10-18T09:58:13.872Z,809.2
2022-10-18T09:59:57.545Z,808.3
2022-10-18T10:01:41.258Z,856.7
2022-10-18T10:03:25.013Z,876.5
2022-10-18T10:05:08.727Z,898.3
2022-10-18T10:06:52.385Z,907.4
2022-10-18T10:08:36.091Z,908.4
2022-10-18T10:10:19.758Z,909.9
2022-10-18T10:12:03.474Z,914.9
2022-10-18T10:13:47.165Z,921.2
2022-10-18T10:15:30.847Z,923.8
2022-10-18T10:17:14.628Z,932
2022-10-18T10:18:58.305Z,930.9
2022-10-18T10:20:41.958Z,915.8
2022-10-18T10:22:25.660Z,906.1
2022-10-18T10:24:09.419Z,902.1
2022-10-18T10:25:53.114Z,900.5
2022-10-18T10:27:36.885Z,899.7
2022-10-18T10:29:20.479Z,908.2
2022-10-18T10:31:04.157Z,913.1
2022-10-18T10:32:47.864Z,913.9
2022-10-18T10:34:31.588Z,916.3
2022-10-18T10:36:15.343Z,879.3
2022-10-18T10:37:59.031Z,794.7
2022-10-18T10:39:42.696Z,808.8
2022-10-18T10:41:26.373Z,820.1
2022-10-18T10:43:10.102Z,828.8
2022-10-18T10:44:53.847Z,833.9
2022-10-18T10:46:37.534Z,841.6
2022-10-18T10:48:21.212Z,846.7
2022-10-18T10:50:05.003Z,849.5
2022-10-18T10:51:48.654Z,852.5
2022-10-18T10:53:32.375Z,856.9
2022-10-18T10:55:16.052Z,860.7
2022-10-18T10:56:59.734Z,865.7
2022-10-18T10:58:43.427Z,876.1
2022-10-18T11:00:27.116Z,895.9
2022-10-18T11:02:10.822Z,906.9
2022-10-18T11:03:54.582Z,888.9
2022-10-18T11:05:38.272Z,879.6
2022-10-18T11:07:21.962Z,883.6
2022-10-18T11:09:05.664Z,896.1
2022-10-18T11:10:49.360Z,905.9
2022-10-18T11:12:33.134Z,916
2022-10-18T11:14:16.781Z,931.6
2022-10-18T11:16:00.479Z,939.1
2022-10-18T11:17:44.260Z,935.9
2022-10-18T11:19:27.851Z,929.1
2022-10-18T11:21:11.645Z,925.9
2022-10-18T11:22:55.302Z,933.2
2022-10-18T11:24:39.018Z,938.2
2022-10-18T11:26:22.662Z,944.9
2022-10-18T11:28:06.380Z,951.2
2022-10-18T11:29:50.082Z,954.2
2022-10-18T11:31:33.822Z,958.3
2022-10-18T11:33:17.534Z,973.8
2022-10-18T11:35:01.198Z,981.9
2022-10-18T11:36:44.874Z,988.2
2022-10-18T11:40:12.269Z,888
2022-10-18T11:41:55.970Z,884.2
2022-10-18T11:43:39.741Z,858.5
2022-10-18T11:45:23.424Z,855.8
2022-10-18T11:47:07.073Z,829.2
2022-10-18T11:48:50.788Z,818.5
2022-10-18T11:50:34.556Z,803.8
2022-10-18T11:52:18.245Z,771
2022-10-18T11:54:01.922Z,726.9
2022-10-18T11:55:45.598Z,708.1
2022-10-18T11:57:29.303Z,714.6
2022-10-18T11:59:13.042Z,716.7
2022-10-18T12:00:56.802Z,717
2022-10-18T12:02:40.445Z,720.1
2022-10-18T12:04:24.180Z,731.4
2022-10-18T12:06:07.819Z,751.5
2022-10-18T12:07:51.498Z,822.6
2022-10-18T12:09:35.218Z,843.6
2022-10-18T12:11:18.966Z,827.4
2022-10-18T12:13:02.650Z,812.5
2022-10-18T12:14:46.326Z,798.7
2022-10-18T12:16:30.012Z,802.5
2022-10-18T12:18:13.712Z,799.8
2022-10-18T12:19:57.403Z,799.3
2022-10-18T12:21:41.172Z,796.9
2022-10-18T12:23:24.872Z,797.4
2022-10-18T12:25:08.541Z,799.7
2022-10-18T12:26:52.217Z,806.2
2022-10-18T12:28:35.905Z,810
2022-10-18T12:30:19.605Z,811.2
2022-10-18T12:32:03.305Z,811.8
2022-10-18T12:33:47.086Z,811.1
2022-10-18T12:35:30.759Z,812.5
2022-10-18T12:37:14.426Z,812.7
2022-10-18T12:38:58.108Z,808.7
2022-10-18T12:40:41.818Z,805.9
2022-10-18T12:42:25.585Z,802.8
2022-10-18T12:44:09.264Z,799.1
2022-10-18T12:45:52.942Z,797.5
2022-10-18T12:47:36.640Z,789.5
2022-10-18T12:49:20.340Z,785.1
2022-10-18T12:51:04.066Z,785.4
2022-10-18T12:52:47.786Z,785.9
2022-10-18T12:54:31.588Z,786.7
2022-10-18T12:56:15.154Z,787.7
2022-10-18T12:57:58.861Z,777.8
2022-10-18T12:59:42.558Z,772.9
2022-10-18T13:01:26.245Z,770
2022-10-18T13:03:10.002Z,772
2022-10-18T13:04:53.670Z,773.9
2022-10-18T13:06:37.355Z,778.5
2022-10-18T13:08:21.055Z,783.4
2022-10-18T13:10:04.758Z,787.7
2022-10-18T13:11:48.434Z,790.7
2022-10-18T13:13:32.200Z,795
2022-10-18T13:15:15.880Z,801.7
2022-10-18T13:16:59.563Z,809
2022-10-18T13:18:43.245Z,812.5
2022-10-18T13:20:26.963Z,817.4
2022-10-18T13:22:10.729Z,818.1
2022-10-18T13:23:54.403Z,816.1
2022-10-18T13:25:38.085Z,816.2
2022-10-18T13:27:21.760Z,819.9
2022-10-18T13:29:05.635Z,822.6
2022-10-18T13:30:49.161Z,825.3
2022-10-18T13:32:32.904Z,826.2
2022-10-18T13:34:16.633Z,819.9
2022-10-18T13:36:00.285Z,818.5
2022-10-18T13:37:43.979Z,816.3
2022-10-18T13:39:27.662Z,818.5
2022-10-18T13:41:11.495Z,820.9
2022-10-18T13:42:55.073Z,824.1
2022-10-18T13:44:38.809Z,825
2022-10-18T13:46:22.495Z,826.6
2022-10-18T13:48:06.177Z,826.4
2022-10-18T13:49:49.916Z,829.2
2022-10-18T13:51:33.586Z,829.2
2022-10-18T13:53:17.345Z,828.3
2022-10-18T13:55:01.016Z,827
2022-10-18T13:56:44.698Z,826
2022-10-18T13:58:28.385Z,827.6
2022-10-18T14:00:12.100Z,827.1
2022-10-18T14:01:55.812Z,822.4
2022-10-18T14:03:39.582Z,803.3
2022-10-18T14:05:23.222Z,777.5
2022-10-18T14:07:06.917Z,768.3
2022-10-18T14:08:50.603Z,761.3
2022-10-18T14:10:34.305Z,760.4
2022-10-18T14:12:17.995Z,757.9
2022-10-18T14:14:01.741Z,752.2
2022-10-18T14:15:45.442Z,745.8
2022-10-18T14:17:29.239Z,742.9
2022-10-18T14:19:12.878Z,744.3
2022-10-18T14:20:56.522Z,742.1
2022-10-18T14:22:40.266Z,737.7
2022-10-18T14:24:23.949Z,736.8
2022-10-18T14:26:07.628Z,733.4
2022-10-18T14:27:51.343Z,725.7
2022-10-18T14:29:35.043Z,716.7
2022-10-18T14:31:18.798Z,712.8
2022-10-18T14:33:02.515Z,711.2
2022-10-18T14:34:46.157Z,719
2022-10-18T14:36:29.843Z,729.8
2022-10-18T14:38:13.562Z,742.8
2022-10-18T14:39:57.244Z,752.7
2022-10-18T14:41:40.998Z,762.9
2022-10-18T14:43:24.685Z,764
2022-10-18T14:45:08.358Z,766.5
2022-10-18T14:46:52.044Z,770.7
2022-10-18T14:48:35.757Z,777.7
2022-10-18T14:50:19.525Z,782.1
2022-10-18T14:52:03.216Z,786.4
2022-10-18T14:53:46.885Z,789.8
2022-10-18T14:55:30.563Z,791.9
2022-10-18T14:57:14.278Z,795
2022-10-18T14:58:57.956Z,798.6
2022-10-18T15:00:41.744Z,802.6
2022-10-18T15:02:25.452Z,798.7
2022-10-18T15:04:09.095Z,796.7
2022-10-18T15:05:52.766Z,797.8
2022-10-18T15:07:36.485Z,794
2022-10-18T15:09:20.184Z,790.7
2022-10-18T15:11:03.869Z,791.7
2022-10-18T15:12:47.652Z,788.9
2022-10-18T15:14:31.296Z,786.8
2022-10-18T15:16:14.978Z,783.6
2022-10-18T15:17:58.717Z,779.9
2022-10-18T15:19:42.468Z,781.7
2022-10-18T15:21:26.166Z,777.2
2022-10-18T15:23:09.813Z,774.3
2022-10-18T15:24:53.498Z,775.1
2022-10-18T15:26:37.212Z,776
2022-10-18T15:28:20.911Z,771.1
2022-10-18T15:30:04.670Z,769.7
2022-10-18T15:31:48.361Z,765.5
2022-10-18T15:33:32.029Z,761.8
2022-10-18T15:35:15.753Z,757.5
2022-10-18T15:36:59.444Z,756.4
2022-10-18T15:38:43.181Z,757.4
2022-10-18T15:40:26.881Z,782.7
2022-10-18T15:42:10.557Z,813.2
2022-10-18T15:43:54.248Z,821.1
2022-10-18T15:45:38.044Z,830.4
2022-10-18T15:47:21.759Z,828.6
2022-10-18T15:49:05.414Z,829
2022-10-18T15:50:49.071Z,829.7
2022-10-18T15:52:32.746Z,831.7
2022-10-18T15:54:16.459Z,831
2022-10-18T15:56:00.158Z,835.5
2022-10-18T15:57:43.912Z,846.8
2022-10-18T15:59:27.593Z,857.9
2022-10-18T16:01:11.276Z,860.4
2022-10-18T16:02:54.982Z,865.9
2022-10-18T16:04:38.680Z,877
2022-10-18T16:06:22.379Z,882.8
2022-10-18T16:08:06.123Z,883.3
2022-10-18T16:09:49.797Z,881.3
2022-10-18T16:11:33.491Z,882.8
2022-10-18T16:13:17.213Z,875.2
2022-10-18T16:15:00.898Z,870.4
2022-10-18T16:16:44.639Z,864.7
2022-10-18T16:18:28.334Z,864
2022-10-18T16:20:12.011Z,867.6
2022-10-18T16:21:55.794Z,874.3
2022-10-18T16:23:39.407Z,877.7
2022-10-18T16:25:23.104Z,881.9
2022-10-18T16:27:06.849Z,884.3
2022-10-18T16:28:50.530Z,893.7
2022-10-18T16:30:34.226Z,900
2022-10-18T16:32:17.911Z,900.1
2022-10-18T16:34:01.626Z,898.1
2022-10-18T16:35:45.367Z,901.2
2022-10-18T16:37:29.050Z,902
2022-10-18T16:39:12.737Z,904.8
2022-10-18T16:40:56.421Z,907.1
2022-10-18T16:42:40.140Z,908.7
2022-10-18T16:44:23.907Z,907.9
2022-10-18T16:46:07.598Z,907.7
2022-10-18T16:47:51.253Z,905.9
2022-10-18T16:49:34.953Z,904.4
2022-10-18T16:51:18.655Z,904.1
2022-10-18T16:53:02.352Z,904.9
2022-10-18T16:54:46.096Z,902.7
2022-10-18T16:56:29.781Z,902.7
2022-10-18T16:58:13.591Z,903
2022-10-18T16:59:57.158Z,905.2
2022-10-18T17:01:40.872Z,905.3
2022-10-18T17:03:24.594Z,905.9
2022-10-18T17:05:08.358Z,907.8
2022-10-18T17:06:51.983Z,910
2022-10-18T17:08:35.679Z,914.2
2022-10-18T17:10:19.396Z,921.1
2022-10-18T17:12:03.202Z,921.2
2022-10-18T17:13:46.864Z,926.6
2022-10-18T17:15:30.510Z,928.5
2022-10-18T17:17:14.216Z,935.6
2022-10-18T17:18:57.889Z,947.6
2022-10-18T17:20:41.609Z,955.7
2022-10-18T17:22:25.356Z,964.9
2022-10-18T17:24:09.033Z,971
2022-10-18T17:25:52.724Z,971.1
2022-10-18T17:27:36.420Z,975.9
2022-10-18T17:29:20.137Z,976.1
2022-10-18T17:31:03.878Z,972.1
2022-10-18T17:32:47.569Z,969.7
2022-10-18T17:34:31.282Z,974.8
2022-10-18T17:36:14.931Z,977.9
2022-10-18T17:37:58.721Z,983.6
2022-10-18T17:39:42.403Z,983.6
2022-10-18T17:41:26.149Z,984.2
2022-10-18T17:43:09.766Z,988.7
2022-10-18T17:44:53.464Z,994.4
2022-10-18T17:46:37.169Z,999.7
2022-10-18T17:48:20.843Z,1003.2
2022-10-18T17:50:04.607Z,1009.6
2022-10-18T17:51:48.444Z,1016.1
2022-10-18T17:53:31.976Z,1026.2
2022-10-18T17:55:15.712Z,1040.5
2022-10-18T17:56:59.370Z,1041.2
2022-10-18T17:58:43.067Z,1038.4
2022-10-18T18:00:26.811Z,1037.9
2022-10-18T18:02:10.493Z,1039.9
2022-10-18T18:03:54.179Z,1042.3
2022-10-18T18:05:37.878Z,1044.8
2022-10-18T18:07:21.579Z,1048.1
2022-10-18T18:09:05.279Z,1047.1
2022-10-18T18:10:49.028Z,1051.2
2022-10-18T18:12:32.700Z,1058.5
2022-10-18T18:14:16.385Z,1065.8
2022-10-18T18:16:00.094Z,1069.2
2022-10-18T18:17:43.802Z,1069.9
2022-10-18T18:19:27.546Z,1069.4
2022-10-18T18:21:11.228Z,1070.2
2022-10-18T18:22:54.930Z,1070.5
2022-10-18T18:24:38.597Z,1076.6
2022-10-18T18:26:22.333Z,1080.7
2022-10-18T18:28:06.069Z,1078.9
2022-10-18T18:29:49.689Z,1081.4
2022-10-18T18:31:33.430Z,1081.3
2022-10-18T18:33:17.110Z,1080.1
2022-10-18T18:35:00.810Z,1086
2022-10-18T18:36:44.496Z,1090.9
2022-10-18T18:38:28.222Z,1095.6
2022-10-18T18:40:11.950Z,1097.2
2022-10-18T18:41:55.675Z,1098.5
2022-10-18T18:43:39.310Z,1102.6
2022-10-18T18:45:23.014Z,1107.7
2022-10-18T18:47:06.736Z,1109.7
2022-10-18T18:48:50.530Z,1116.3
2022-10-18T18:50:34.154Z,1122.2
2022-10-18T18:52:17.835Z,1125.5
2022-10-18T18:54:01.542Z,1131.1
2022-10-18T18:55:45.234Z,1144
2022-10-18T18:57:28.917Z,1152.5
2022-10-18T18:59:12.708Z,1157.2
2022-10-18T19:00:56.369Z,1166.3
2022-10-18T19:02:40.072Z,1174.6
2022-10-18T19:04:23.752Z,1189.3
2022-10-18T19:06:07.478Z,1204.3
2022-10-18T19:07:51.145Z,1219.4
2022-10-18T19:09:34.912Z,1238.4
2022-10-18T19:11:18.615Z,1242.4
2022-10-18T19:13:02.249Z,1246.8
2022-10-18T19:14:45.960Z,1249.8
2022-10-18T19:16:29.666Z,1253.3
2022-10-18T19:18:13.409Z,1261.5
2022-10-18T19:19:57.093Z,1264.5
2022-10-18T19:21:40.769Z,1262.8
2022-10-18T19:23:24.482Z,1264.5
2022-10-18T19:25:08.175Z,1267.8
2022-10-18T19:26:51.875Z,1267.9
2022-10-18T19:28:35.678Z,1270.5
2022-10-18T19:30:19.305Z,1269
2022-10-18T19:32:03.031Z,1264.4
2022-10-18T19:33:46.682Z,1264.3
2022-10-18T19:35:30.458Z,1261.9
2022-10-18T19:37:14.141Z,1258.6
2022-10-18T19:38:57.823Z,1255.8
2022-10-18T19:40:41.507Z,1253.6
2022-10-18T19:42:25.227Z,1255.8
2022-10-18T19:44:08.910Z,1260.2
2022-10-18T19:45:52.731Z,1263.4
2022-10-18T19:47:36.424Z,1266.1
2022-10-18T19:49:20.081Z,1269
2022-10-18T19:51:03.720Z,1273.4
2022-10-18T19:52:47.498Z,1275
2022-10-18T19:54:31.257Z,1274.6
2022-10-18T19:56:14.988Z,1274
2022-10-18T19:57:58.550Z,1273.1
2022-10-18T19:59:42.310Z,1275.5
2022-10-18T20:01:25.942Z,1276.1
2022-10-18T20:03:09.790Z,1279.1
2022-10-18T20:04:53.429Z,1283.4
2022-10-18T20:06:37.174Z,1283
2022-10-18T20:08:20.779Z,1277.5
2022-10-18T20:10:04.476Z,1273.5
2022-10-18T20:11:48.170Z,1274.5
2022-10-18T20:13:31.949Z,1276.6
2022-10-18T20:15:15.623Z,1280
2022-10-18T20:16:59.274Z,1279
2022-10-18T20:18:42.961Z,1279.9
2022-10-18T20:20:26.647Z,1287
2022-10-18T20:22:10.383Z,1287.7
2022-10-18T20:23:54.171Z,1286.6
2022-10-18T20:25:37.835Z,1286.3
2022-10-18T20:27:21.631Z,1279.7
2022-10-18T20:29:05.212Z,1276.9
2022-10-18T20:30:48.905Z,1280.9
2022-10-18T20:32:32.568Z,1288.6
2022-10-18T20:34:16.339Z,1292.9
2022-10-18T20:36:00.010Z,1293.3
2022-10-18T20:37:43.759Z,1294
2022-10-18T20:39:27.472Z,1293.4
2022-10-18T20:41:11.074Z,1290.7
2022-10-18T20:42:54.875Z,1293.9
2022-10-18T20:44:38.579Z,1296.4
2022-10-18T20:46:22.225Z,1293.7
2022-10-18T20:48:05.935Z,1290.2
2022-10-18T20:49:49.586Z,1287.2
2022-10-18T20:51:33.282Z,1284.5
2022-10-18T20:53:16.979Z,1284.8
2022-10-18T20:55:00.740Z,1287.1
2022-10-18T20:56:44.420Z,1286
2022-10-18T20:58:28.152Z,1289
2022-10-18T21:00:11.823Z,1297.3
2022-10-18T21:01:55.536Z,1301.8
2022-10-18T21:03:39.288Z,1305.4
2022-10-18T21:05:22.943Z,1304.5
2022-10-18T21:07:06.648Z,1301.1
2022-10-18T21:08:50.306Z,1300.2
2022-10-18T21:10:34.046Z,1298.2
2022-10-18T21:12:17.723Z,1293.5
2022-10-18T21:14:01.462Z,1291.7
2022-10-18T21:15:45.141Z,1292.4
2022-10-18T21:17:28.832Z,1289.7
2022-10-18T21:19:12.531Z,1291.4
2022-10-18T21:20:56.369Z,1295.8
2022-10-18T21:22:40.001Z,1296.2
2022-10-18T21:24:23.675Z,1295.8
2022-10-18T21:26:07.351Z,1295.4
2022-10-18T21:27:51.058Z,1297
2022-10-18T21:29:34.780Z,1297.2
2022-10-18T21:31:18.495Z,1303.8
2022-10-18T21:33:02.202Z,1305
2022-10-18T21:34:45.892Z,1307.2
2022-10-18T21:36:29.572Z,1305.9
2022-10-18T21:38:13.276Z,1304.9
2022-10-18T21:39:57.046Z,1305.1
2022-10-18T21:41:40.732Z,1306.3
2022-10-18T21:43:24.398Z,1309.1
2022-10-18T21:45:08.082Z,1312.5
2022-10-18T21:46:51.796Z,1308.7
2022-10-18T21:48:35.488Z,1307.9
2022-10-18T21:50:19.251Z,1308.1
2022-10-18T21:52:02.925Z,1310.6
2022-10-18T21:53:46.621Z,1311.9
2022-10-18T21:55:30.296Z,1310.7
2022-10-18T21:57:14.004Z,1309.8
2022-10-18T21:58:57.698Z,1311.1
2022-10-18T22:00:41.458Z,1313.7
2022-10-18T22:02:25.129Z,1317.1
2022-10-18T22:04:08.811Z,1318.8
2022-10-18T22:05:52.518Z,1318.9
2022-10-18T22:07:36.223Z,1316.1
2022-10-18T22:09:19.969Z,1312
2022-10-18T22:11:03.650Z,1309.5
2022-10-18T22:12:47.352Z,1307.5
2022-10-18T22:14:31.033Z,1307.2
2022-10-18T22:16:14.723Z,1310.5